createdAt,value
2022-08-17T00:01:30.045Z,27.63
2022-08-17T00:04:06.894Z,27.38
2022-08-17T00:06:37.366Z,27.33
2022-08-17T00:09:05.160Z,28.77
2022-08-17T00:11:34.698Z,28.75
2022-08-17T00:14:21.968Z,27.55
2022-08-17T00:16:57.341Z,28.13
2022-08-17T00:19:26.060Z,28.42
2022-08-17T00:22:31.814Z,28.77
2022-08-17T00:24:42.814Z,28.80
2022-08-17T00:27:09.255Z,27.73
2022-08-17T00:29:36.335Z,28.20
2022-08-17T00:33:12.571Z,26.80
2022-08-17T00:34:49.923Z,28.45
2022-08-17T00:37:16.669Z,26.25
2022-08-17T00:39:44.251Z,27.45
2022-08-17T00:42:16.633Z,26.02
2022-08-17T00:44:43.164Z,26.65
2022-08-17T00:47:09.763Z,26.15
2022-08-17T00:49:36.268Z,26.85
2022-08-17T00:52:11.659Z,26.27
2022-08-17T00:54:42.469Z,25.15
2022-08-17T00:57:20.176Z,26.45
2022-08-17T00:59:56.052Z,25.60
2022-08-17T01:02:34.339Z,26.25
2022-08-17T01:05:09.172Z,25.48
2022-08-17T01:07:37.832Z,25.38
2022-08-17T01:10:58.521Z,24.77
2022-08-17T01:12:56.659Z,24.92
2022-08-17T01:15:23.514Z,24.48
2022-08-17T01:17:50.442Z,24.00
2022-08-17T01:20:17.033Z,22.50
2022-08-17T01:22:43.565Z,23.20
2022-08-17T01:25:12.658Z,22.27
2022-08-17T01:27:41.809Z,22.48
2022-08-17T01:30:56.648Z,21.92
2022-08-17T01:32:58.381Z,20.45
2022-08-17T01:35:24.965Z,20.58
2022-08-17T01:37:51.994Z,21.38
2022-08-17T01:40:28.865Z,20.90
2022-08-17T01:43:00.293Z,21.33
2022-08-17T01:45:33.564Z,20.15
2022-08-17T01:48:00.743Z,20.13
2022-08-17T01:50:31.166Z,21.67
2022-08-17T01:53:01.878Z,21.13
2022-08-17T01:55:34.670Z,22.10
2022-08-17T01:58:01.325Z,20.38
2022-08-17T02:01:01.043Z,21.55
2022-08-17T02:03:17.133Z,21.15
2022-08-17T02:05:44.377Z,22.98
2022-08-17T02:08:20.179Z,21.75
2022-08-17T02:10:48.632Z,23.45
2022-08-17T02:13:15.958Z,22.45
2022-08-17T02:15:42.988Z,22.80
2022-08-17T02:18:10.891Z,21.05
2022-08-17T02:20:41.598Z,21.00
2022-08-17T02:23:11.790Z,20.05
2022-08-17T02:25:42.039Z,19.60
2022-08-17T02:28:08.751Z,19.80
2022-08-17T02:30:59.802Z,18.90
2022-08-17T02:33:22.379Z,19.20
2022-08-17T02:35:48.972Z,19.20
2022-08-17T02:38:16.611Z,19.50
2022-08-17T02:40:43.277Z,18.23
2022-08-17T02:43:13.671Z,19.10
2022-08-17T02:45:40.354Z,18.80
2022-08-17T02:48:09.165Z,18.50
2022-08-17T02:50:36.387Z,18.33
2022-08-17T02:53:04.824Z,18.27
2022-08-17T02:55:35.705Z,18.25
2022-08-17T02:58:03.630Z,18.65
2022-08-17T03:00:37.204Z,19.77
2022-08-17T03:03:08.746Z,20.17
2022-08-17T03:08:03.714Z,19.23
2022-08-17T03:10:31.076Z,19.60
2022-08-17T03:12:57.884Z,18.98
2022-08-17T03:15:27.264Z,20.13
2022-08-17T03:17:54.946Z,20.00
2022-08-17T03:20:21.729Z,19.90
2022-08-17T03:22:53.387Z,19.58
2022-08-17T03:25:33.128Z,18.38
2022-08-17T03:28:00.933Z,18.77
2022-08-17T03:30:28.809Z,18.65
2022-08-17T03:32:57.249Z,17.00
2022-08-17T03:35:27.205Z,16.77
2022-08-17T03:38:00.573Z,16.52
2022-08-17T03:40:55.652Z,15.98
2022-08-17T03:43:15.966Z,16.63
2022-08-17T03:46:01.678Z,16.00
2022-08-17T03:48:46.869Z,15.27
2022-08-17T03:51:38.135Z,15.07
2022-08-17T03:54:23.763Z,14.73
2022-08-17T03:57:02.348Z,15.07
2022-08-17T03:59:29.707Z,15.95
2022-08-17T04:01:59.022Z,14.38
2022-08-17T04:04:27.560Z,14.30
2022-08-17T04:06:54.581Z,14.15
2022-08-17T04:09:21.229Z,13.68
2022-08-17T04:11:47.833Z,13.65
2022-08-17T04:14:14.351Z,13.10
2022-08-17T04:16:41.137Z,14.55
2022-08-17T04:19:09.413Z,12.50
2022-08-17T04:21:35.950Z,14.13
2022-08-17T04:24:02.686Z,13.02
2022-08-17T04:26:52.195Z,13.60
2022-08-17T04:29:17.014Z,13.70
2022-08-17T04:31:43.974Z,14.43
2022-08-17T04:34:11.713Z,14.57
2022-08-17T04:36:38.300Z,14.60
2022-08-17T04:39:05.166Z,15.48
2022-08-17T04:41:50.424Z,16.50
2022-08-17T04:44:28.331Z,18.67
2022-08-17T04:47:03.405Z,17.85
2022-08-17T04:49:30.022Z,19.25
2022-08-17T04:52:00.114Z,19.88
2022-08-17T04:54:30.990Z,20.15
2022-08-17T04:56:57.572Z,21.35
2022-08-17T04:59:24.030Z,20.52
2022-08-17T05:01:51.693Z,21.45
2022-08-17T05:04:33.042Z,21.55
2022-08-17T05:07:01.224Z,20.02
2022-08-17T05:09:28.077Z,20.73
2022-08-17T05:11:55.287Z,19.15
2022-08-17T05:14:22.704Z,18.30
2022-08-17T05:16:59.750Z,17.98
2022-08-17T05:19:27.665Z,16.75
2022-08-17T05:21:54.203Z,16.85
2022-08-17T05:24:42.508Z,15.77
2022-08-17T05:27:07.449Z,14.88
2022-08-17T05:29:35.265Z,14.05
2022-08-17T05:32:38.982Z,13.70
2022-08-17T05:35:00.458Z,12.60
2022-08-17T05:37:27.437Z,12.02
2022-08-17T05:39:54.055Z,11.32
2022-08-17T05:42:21.549Z,11.55
2022-08-17T05:44:47.994Z,10.45
2022-08-17T05:47:14.453Z,10.00
2022-08-17T05:49:41.044Z,9.52
2022-08-17T05:52:23.468Z,9.35
2022-08-17T05:55:11.880Z,8.70
2022-08-17T05:58:17.651Z,8.13
2022-08-17T06:01:13.217Z,7.60
2022-08-17T06:03:59.009Z,7.50
2022-08-17T06:06:34.679Z,6.90
2022-08-17T06:09:33.840Z,6.47
2022-08-17T06:12:21.443Z,6.38
2022-08-17T06:15:24.822Z,6.30
2022-08-17T06:17:59.803Z,6.75
2022-08-17T06:20:32.594Z,6.43
2022-08-17T06:23:11.083Z,6.50
2022-08-17T06:25:45.287Z,7.13
2022-08-17T06:28:16.191Z,7.28
2022-08-17T06:30:59.583Z,7.57
2022-08-17T06:33:35.403Z,7.97
2022-08-17T06:36:26.294Z,8.05
2022-08-17T06:39:03.298Z,8.00
2022-08-17T06:41:58.194Z,8.52
2022-08-17T06:44:50.675Z,8.70
2022-08-17T06:47:27.948Z,9.25
2022-08-17T06:50:16.816Z,9.52
2022-08-17T06:53:12.795Z,9.68
2022-08-17T06:55:51.293Z,9.90
2022-08-17T06:58:22.204Z,9.75
2022-08-17T07:00:56.665Z,9.30
2022-08-17T07:03:37.619Z,10.45
2022-08-17T07:06:22.144Z,10.45
2022-08-17T07:08:58.993Z,11.40
2022-08-17T07:11:41.477Z,10.88
2022-08-17T07:14:32.012Z,11.40
2022-08-17T07:17:02.797Z,10.82
2022-08-17T07:19:32.889Z,12.13
2022-08-17T07:22:22.080Z,11.23
2022-08-17T07:25:05.530Z,11.38
2022-08-17T07:27:40.786Z,11.90
2022-08-17T07:30:16.319Z,13.00
2022-08-17T07:32:53.309Z,12.45
2022-08-17T07:35:37.573Z,12.10
2022-08-17T07:38:28.204Z,12.35
2022-08-17T07:40:57.802Z,12.70
2022-08-17T07:43:27.691Z,12.10
2022-08-17T07:46:29.965Z,12.57
2022-08-17T07:49:15.823Z,12.13
2022-08-17T07:51:48.076Z,12.80
2022-08-17T07:54:19.457Z,12.90
2022-08-17T07:56:49.541Z,12.45
2022-08-17T07:59:25.071Z,13.10
2022-08-17T08:01:57.545Z,13.48
2022-08-17T08:07:16.085Z,13.13
2022-08-17T08:10:05.008Z,13.35
2022-08-17T08:12:39.864Z,13.18
2022-08-17T08:15:19.271Z,13.15
2022-08-17T08:17:49.915Z,13.52
2022-08-17T08:20:52.496Z,13.48
2022-08-17T08:23:25.922Z,13.30
2022-08-17T08:26:09.545Z,12.85
2022-08-17T08:29:08.921Z,12.18
2022-08-17T08:31:44.430Z,11.57
2022-08-17T08:34:45.031Z,11.07
2022-08-17T08:37:16.450Z,9.77
2022-08-17T08:40:15.558Z,8.82
2022-08-17T08:42:58.775Z,8.57
2022-08-17T08:46:06.653Z,8.50
2022-08-17T08:48:56.627Z,8.27
2022-08-17T08:51:33.935Z,8.05
2022-08-17T08:54:17.262Z,8.00
2022-08-17T08:57:22.326Z,7.43
2022-08-17T09:00:20.030Z,7.85
2022-08-17T09:03:17.410Z,7.97
2022-08-17T09:05:56.180Z,8.40
2022-08-17T09:08:32.210Z,7.68
2022-08-17T09:11:25.655Z,7.32
2022-08-17T09:13:55.626Z,8.10
2022-08-17T09:16:30.802Z,7.60
2022-08-17T09:19:05.366Z,7.53
2022-08-17T09:21:49.726Z,7.30
2022-08-17T09:24:43.383Z,7.20
2022-08-17T09:27:18.381Z,8.20
2022-08-17T09:30:07.863Z,8.30
2022-08-17T09:32:39.620Z,8.70
2022-08-17T09:35:15.728Z,9.35
2022-08-17T09:38:02.916Z,9.40
2022-08-17T09:40:43.186Z,10.68
2022-08-17T09:43:28.045Z,11.23
2022-08-17T09:46:02.158Z,10.77
2022-08-17T09:48:35.613Z,11.45
2022-08-17T09:51:25.158Z,10.88
2022-08-17T09:53:51.946Z,10.88
2022-08-17T09:56:46.952Z,11.18
2022-08-17T09:59:44.949Z,10.45
2022-08-17T10:02:45.606Z,10.57
2022-08-17T10:05:22.688Z,10.57
2022-08-17T10:08:41.832Z,10.30
2022-08-17T10:11:50.266Z,10.70
2022-08-17T10:14:37.036Z,10.52
2022-08-17T10:17:28.620Z,11.77
2022-08-17T10:20:15.814Z,10.95
2022-08-17T10:23:20.480Z,10.02
2022-08-17T10:26:04.509Z,10.00
2022-08-17T10:28:44.493Z,9.90
2022-08-17T10:31:34.463Z,9.85
2022-08-17T10:34:23.414Z,9.87
2022-08-17T10:37:16.351Z,8.98
2022-08-17T10:39:52.721Z,10.20
2022-08-17T10:42:37.401Z,10.98
2022-08-17T10:45:06.802Z,10.77
2022-08-17T10:48:12.943Z,11.32
2022-08-17T10:50:49.469Z,11.07
2022-08-17T10:53:31.256Z,11.07
2022-08-17T10:56:13.084Z,12.30
2022-08-17T10:58:59.521Z,12.15
2022-08-17T11:01:31.742Z,11.88
2022-08-17T11:04:21.328Z,12.50
2022-08-17T11:07:12.365Z,11.57
2022-08-17T11:10:09.216Z,12.60
2022-08-17T11:13:21.689Z,12.30
2022-08-17T11:16:08.125Z,11.98
2022-08-17T11:18:56.019Z,12.70
2022-08-17T11:21:41.616Z,12.65
2022-08-17T11:24:35.767Z,12.98
2022-08-17T11:27:09.129Z,13.85
2022-08-17T11:29:59.464Z,13.80
2022-08-17T11:32:47.669Z,12.80
2022-08-17T11:35:21.193Z,13.15
2022-08-17T11:38:15.990Z,14.15
2022-08-17T11:41:04.153Z,14.70
2022-08-17T11:44:03.527Z,14.05
2022-08-17T11:47:13.907Z,13.93
2022-08-17T11:50:17.664Z,14.43
2022-08-17T11:52:47.963Z,15.52
2022-08-17T11:55:38.209Z,15.10
2022-08-17T11:58:28.897Z,15.10
2022-08-17T12:01:03.212Z,15.70
2022-08-17T12:03:32.910Z,17.45
2022-08-17T12:06:06.872Z,17.35
2022-08-17T12:08:41.678Z,17.52
2022-08-17T12:11:12.085Z,18.33
2022-08-17T12:13:46.594Z,18.48
2022-08-17T12:16:19.064Z,18.10
2022-08-17T12:19:02.422Z,19.77
2022-08-17T12:21:42.539Z,19.25
2022-08-17T12:24:35.386Z,20.02
2022-08-17T12:27:04.433Z,19.60
2022-08-17T12:29:38.793Z,19.98
2022-08-17T12:32:13.757Z,19.95
2022-08-17T12:34:42.825Z,21.30
2022-08-17T12:37:31.490Z,20.92
2022-08-17T12:40:05.584Z,21.52
2022-08-17T12:42:39.270Z,21.48
2022-08-17T12:45:08.355Z,21.20
2022-08-17T12:47:38.059Z,21.83
2022-08-17T12:50:28.485Z,21.58
2022-08-17T12:53:01.600Z,21.38
2022-08-17T12:55:35.565Z,21.02
2022-08-17T12:58:02.431Z,21.40
2022-08-17T13:00:32.816Z,20.80
2022-08-17T13:03:07.727Z,21.08
2022-08-17T13:06:06.222Z,21.45
2022-08-17T13:08:36.430Z,21.83
2022-08-17T13:11:10.826Z,22.35
2022-08-17T13:13:41.455Z,22.80
2022-08-17T13:16:17.235Z,21.63
2022-08-17T13:18:48.708Z,23.42
2022-08-17T13:23:54.203Z,21.85
2022-08-17T13:26:30.392Z,22.23
2022-08-17T13:28:57.524Z,22.55
2022-08-17T13:31:42.854Z,23.63
2022-08-17T13:34:28.311Z,24.35
2022-08-17T13:37:29.753Z,23.58
2022-08-17T13:40:08.129Z,24.02
2022-08-17T13:42:52.986Z,22.85
2022-08-17T13:45:36.623Z,24.08
2022-08-17T13:48:23.926Z,24.20
2022-08-17T13:50:56.532Z,24.00
2022-08-17T13:53:31.522Z,22.98
2022-08-17T13:56:03.848Z,22.98
2022-08-17T13:58:37.169Z,24.33
2022-08-17T14:01:37.135Z,23.60
2022-08-17T14:04:07.910Z,23.35
2022-08-17T14:06:59.525Z,23.77
2022-08-17T14:09:37.229Z,22.75
2022-08-17T14:12:11.401Z,23.30
2022-08-17T14:14:42.978Z,22.63
2022-08-17T14:17:10.656Z,23.30
2022-08-17T14:19:37.539Z,22.42
2022-08-17T14:22:06.536Z,22.33
2022-08-17T14:24:38.992Z,22.38
2022-08-17T14:27:09.083Z,21.67
2022-08-17T14:29:35.950Z,22.05
2022-08-17T14:32:11.287Z,21.90
2022-08-17T14:34:37.717Z,22.23
2022-08-17T14:37:04.155Z,21.95
2022-08-17T14:39:30.643Z,21.98
2022-08-17T14:41:58.269Z,21.48
2022-08-17T14:44:24.879Z,22.15
2022-08-17T14:46:51.526Z,22.13
2022-08-17T14:49:20.567Z,22.63
2022-08-17T14:51:47.271Z,22.50
2022-08-17T14:54:33.354Z,22.13
2022-08-17T14:57:23.368Z,21.83
2022-08-17T14:59:53.417Z,21.60
2022-08-17T15:02:30.046Z,22.48
2022-08-17T15:05:02.212Z,21.38
2022-08-17T15:07:30.901Z,21.63
2022-08-17T15:09:58.939Z,20.65
2022-08-17T15:12:32.038Z,21.90
2022-08-17T15:15:00.547Z,20.80
2022-08-17T15:17:27.105Z,21.70
2022-08-17T15:20:15.778Z,21.58
2022-08-17T15:22:43.663Z,21.75
2022-08-17T15:25:10.681Z,20.75
2022-08-17T15:27:37.496Z,20.13
2022-08-17T15:30:08.087Z,20.67
2022-08-17T15:32:37.998Z,20.77
2022-08-17T15:35:06.304Z,19.30
2022-08-17T15:37:33.337Z,20.00
2022-08-17T15:40:01.059Z,20.58
2022-08-17T15:42:27.736Z,19.90
2022-08-17T15:44:57.152Z,18.88
2022-08-17T15:47:24.395Z,19.85
2022-08-17T15:49:50.918Z,18.90
2022-08-17T15:52:22.464Z,19.10
2022-08-17T15:54:50.896Z,18.83
2022-08-17T15:57:18.153Z,18.88
2022-08-17T15:59:44.732Z,18.20
2022-08-17T16:03:14.239Z,18.50
2022-08-17T16:05:17.461Z,17.80
2022-08-17T16:07:46.307Z,17.25
2022-08-17T16:10:18.225Z,17.08
2022-08-17T16:12:46.903Z,17.15
2022-08-17T16:15:13.831Z,16.45
2022-08-17T16:17:41.457Z,14.38
2022-08-17T16:20:10.093Z,15.13
2022-08-17T16:22:47.760Z,14.63
2022-08-17T16:25:18.671Z,14.30
2022-08-17T16:27:46.622Z,14.27
2022-08-17T16:30:17.735Z,14.77
2022-08-17T16:32:45.760Z,14.93
2022-08-17T16:35:16.085Z,16.13
2022-08-17T16:37:44.594Z,15.10
2022-08-17T16:40:13.285Z,15.90
2022-08-17T16:42:40.542Z,15.60
2022-08-17T16:45:12.943Z,16.08
2022-08-17T16:47:40.115Z,16.73
2022-08-17T16:50:11.598Z,16.23
2022-08-17T16:52:38.660Z,16.75
2022-08-17T16:55:07.405Z,17.17
2022-08-17T16:57:34.944Z,16.23
2022-08-17T17:00:01.533Z,16.98
2022-08-17T17:02:32.382Z,18.13
2022-08-17T17:05:24.316Z,17.48
2022-08-17T17:08:16.262Z,18.48
2022-08-17T17:10:47.747Z,19.25
2022-08-17T17:16:00.677Z,18.85
2022-08-17T17:18:40.823Z,19.80
2022-08-17T17:21:12.678Z,20.55
2022-08-17T17:23:52.528Z,18.98
2022-08-17T17:26:50.591Z,20.10
2022-08-17T17:29:26.646Z,21.58
2022-08-17T17:32:17.328Z,19.05
2022-08-17T17:34:50.988Z,20.20
2022-08-17T17:37:24.414Z,20.27
2022-08-17T17:39:59.033Z,20.15
2022-08-17T17:42:31.232Z,20.88
2022-08-17T17:45:07.608Z,20.38
2022-08-17T17:47:35.124Z,19.95
2022-08-17T17:50:04.410Z,21.75
2022-08-17T17:52:47.287Z,21.42
2022-08-17T17:55:36.206Z,22.17
2022-08-17T17:58:07.485Z,21.65
2022-08-17T18:00:41.888Z,22.02
2022-08-17T18:03:34.592Z,22.20
2022-08-17T18:06:18.670Z,23.02
2022-08-17T18:09:10.259Z,22.02
2022-08-17T18:12:15.780Z,21.27
2022-08-17T18:14:49.597Z,21.33
2022-08-17T18:17:17.945Z,21.73
2022-08-17T18:19:45.182Z,23.02
2022-08-17T18:22:19.564Z,22.05
2022-08-17T18:24:49.441Z,22.92
2022-08-17T18:27:30.706Z,22.27
2022-08-17T18:29:59.519Z,21.30
2022-08-17T18:32:33.376Z,22.02
2022-08-17T18:35:19.737Z,20.70
2022-08-17T18:37:46.192Z,22.88
2022-08-17T18:40:21.504Z,18.85
2022-08-17T18:43:22.899Z,23.08
2022-08-17T18:45:51.542Z,26.33
2022-08-17T18:48:32.978Z,26.15
2022-08-17T18:51:26.331Z,27.70
2022-08-17T18:54:16.329Z,27.63
2022-08-17T18:56:48.593Z,27.45
2022-08-17T18:59:26.900Z,28.70
2022-08-17T19:01:58.179Z,27.77
2022-08-17T19:04:41.869Z,28.42
2022-08-17T19:07:31.228Z,29.15
2022-08-17T19:10:16.349Z,28.95
2022-08-17T19:12:52.406Z,28.48
2022-08-17T19:15:29.976Z,28.70
2022-08-17T19:18:26.692Z,27.85
2022-08-17T19:21:10.517Z,29.73
2022-08-17T19:24:04.855Z,29.83
2022-08-17T19:26:54.369Z,26.67
2022-08-17T19:29:36.715Z,27.92
2022-08-17T19:32:04.132Z,27.73
2022-08-17T19:34:34.656Z,28.33
2022-08-17T19:37:17.684Z,29.13
2022-08-17T19:40:02.570Z,27.23
2022-08-17T19:43:00.689Z,27.13
2022-08-17T19:45:56.032Z,28.70
2022-08-17T19:48:25.462Z,28.55
2022-08-17T19:51:17.783Z,27.85
2022-08-17T19:54:07.278Z,27.15
2022-08-17T19:56:50.201Z,27.83
2022-08-17T19:59:41.339Z,27.98
2022-08-17T20:02:23.269Z,26.77
2022-08-17T20:04:52.988Z,27.00
2022-08-17T20:07:43.674Z,24.92
2022-08-17T20:10:28.819Z,25.02
2022-08-17T20:13:01.548Z,24.58
2022-08-17T20:15:30.631Z,25.15
2022-08-17T20:18:05.404Z,25.20
2022-08-17T20:20:47.152Z,24.35
2022-08-17T20:23:28.902Z,23.88
2022-08-17T20:26:23.391Z,22.88
2022-08-17T20:29:37.141Z,22.27
2022-08-17T20:32:31.348Z,21.83
2022-08-17T20:35:08.434Z,21.93
2022-08-17T20:37:38.177Z,22.92
2022-08-17T20:40:05.017Z,22.80
2022-08-17T20:42:33.772Z,22.55
2022-08-17T20:45:21.602Z,23.38
2022-08-17T20:48:18.494Z,21.85
2022-08-17T20:50:47.149Z,22.85
2022-08-17T20:53:48.477Z,23.10
2022-08-17T20:56:48.763Z,22.55
2022-08-17T20:59:25.512Z,21.95
2022-08-17T21:02:18.689Z,21.50
2022-08-17T21:04:52.873Z,21.20
2022-08-17T21:07:47.583Z,20.67
2022-08-17T21:10:25.781Z,20.50
2022-08-17T21:13:01.794Z,20.75
2022-08-17T21:15:39.199Z,19.73
2022-08-17T21:18:21.697Z,20.15
2022-08-17T21:21:24.126Z,19.33
2022-08-17T21:24:27.680Z,18.83
2022-08-17T21:27:23.485Z,19.20
2022-08-17T21:29:57.225Z,18.73
2022-08-17T21:32:30.521Z,18.55
2022-08-17T21:35:06.772Z,17.63
2022-08-17T21:37:41.979Z,18.27
2022-08-17T21:40:11.342Z,17.30
2022-08-17T21:42:46.585Z,17.25
2022-08-17T21:45:24.875Z,17.27
2022-08-17T21:48:12.956Z,15.77
2022-08-17T21:50:42.754Z,15.98
2022-08-17T21:53:21.995Z,15.80
2022-08-17T21:55:50.137Z,14.05
2022-08-17T21:58:31.133Z,14.25
2022-08-17T22:01:26.423Z,14.13
2022-08-17T22:04:04.075Z,13.93
2022-08-17T22:06:38.531Z,14.60
2022-08-17T22:09:11.212Z,13.57
2022-08-17T22:11:52.423Z,13.45
2022-08-17T22:14:22.924Z,14.25
2022-08-17T22:17:16.759Z,13.77
2022-08-17T22:19:46.676Z,12.75
2022-08-17T22:22:59.314Z,13.05
2022-08-17T22:25:28.018Z,13.32
2022-08-17T22:27:57.859Z,13.63
2022-08-17T22:30:35.874Z,14.05
2022-08-17T22:33:40.340Z,12.82
2022-08-17T22:36:22.524Z,12.60
2022-08-17T22:38:49.897Z,11.95
2022-08-17T22:41:42.396Z,12.65
2022-08-17T22:44:23.394Z,11.40
2022-08-17T22:46:58.637Z,11.65
2022-08-17T22:49:54.193Z,11.55
2022-08-17T22:53:02.296Z,11.82
2022-08-17T22:55:51.953Z,11.52
2022-08-17T22:58:40.353Z,11.73
2022-08-17T23:01:29.617Z,12.73
2022-08-17T23:03:59.306Z,11.35
2022-08-17T23:06:25.841Z,11.48
2022-08-17T23:08:57.574Z,11.52
2022-08-17T23:11:36.911Z,11.00
2022-08-17T23:14:15.541Z,11.80
2022-08-17T23:16:42.666Z,11.45
2022-08-17T23:19:10.540Z,11.23
2022-08-17T23:21:37.373Z,11.85
2022-08-17T23:24:08.818Z,12.02
2022-08-17T23:26:37.943Z,11.25
2022-08-17T23:29:08.891Z,11.55
2022-08-17T23:31:37.155Z,12.30
2022-08-17T23:34:06.670Z,11.45
2022-08-17T23:36:35.801Z,11.38
2022-08-17T23:39:02.237Z,11.73
2022-08-17T23:41:32.019Z,12.07
2022-08-17T23:43:59.915Z,11.48
2022-08-17T23:46:26.355Z,11.75
2022-08-17T23:48:54.076Z,11.88
2022-08-17T23:51:25.218Z,13.00
2022-08-17T23:53:58.007Z,12.13
2022-08-17T23:56:26.046Z,12.48
2022-08-17T23:58:55.801Z,12.80
